sensor_id;sensor_type;location;lat;lon;timestamp;temperature;humidity
56256;DHT22;57229;51.432;-2.598;2022-09-01T00:00:12;22.60;76.60
56256;DHT22;57229;51.432;-2.598;2022-09-01T00:02:39;22.60;76.50
56256;DHT22;57229;51.432;-2.598;2022-09-01T00:05:07;22.60;76.50
56256;DHT22;57229;51.432;-2.598;2022-09-01T00:07:33;22.60;76.30
56256;DHT22;57229;51.432;-2.598;2022-09-01T00:10:00;22.60;76.40
56256;DHT22;57229;51.432;-2.598;2022-09-01T00:12:28;22.60;76.40
56256;DHT22;57229;51.432;-2.598;2022-09-01T00:14:54;22.60;76.40
56256;DHT22;57229;51.432;-2.598;2022-09-01T00:17:20;22.60;76.40
56256;DHT22;57229;51.432;-2.598;2022-09-01T00:19:46;22.60;76.40
56256;DHT22;57229;51.432;-2.598;2022-09-01T00:22:12;22.60;76.40
56256;DHT22;57229;51.432;-2.598;2022-09-01T00:24:39;22.60;76.40
56256;DHT22;57229;51.432;-2.598;2022-09-01T00:27:04;22.60;76.60
56256;DHT22;57229;51.432;-2.598;2022-09-01T00:29:30;22.50;76.50
56256;DHT22;57229;51.432;-2.598;2022-09-01T00:31:56;22.50;76.70
56256;DHT22;57229;51.432;-2.598;2022-09-01T00:34:21;22.60;76.70
56256;DHT22;57229;51.432;-2.598;2022-09-01T00:36:47;22.60;76.60
56256;DHT22;57229;51.432;-2.598;2022-09-01T00:39:14;22.50;76.60
56256;DHT22;57229;51.432;-2.598;2022-09-01T00:41:40;22.50;76.60
56256;DHT22;57229;51.432;-2.598;2022-09-01T00:44:12;22.50;76.50
56256;DHT22;57229;51.432;-2.598;2022-09-01T00:46:44;22.50;76.50
56256;DHT22;57229;51.432;-2.598;2022-09-01T00:49:30;22.50;76.60
56256;DHT22;57229;51.432;-2.598;2022-09-01T00:52:04;22.50;76.60
56256;DHT22;57229;51.432;-2.598;2022-09-01T00:54:35;22.50;76.60
56256;DHT22;57229;51.432;-2.598;2022-09-01T00:57:02;22.50;76.60
56256;DHT22;57229;51.432;-2.598;2022-09-01T00:59:29;22.50;76.50
56256;DHT22;57229;51.432;-2.598;2022-09-01T01:01:56;22.50;76.60
56256;DHT22;57229;51.432;-2.598;2022-09-01T01:04:23;22.50;76.60
56256;DHT22;57229;51.432;-2.598;2022-09-01T01:06:55;22.50;76.60
56256;DHT22;57229;51.432;-2.598;2022-09-01T01:09:29;22.50;76.60
56256;DHT22;57229;51.432;-2.598;2022-09-01T01:11:56;22.50;76.60
56256;DHT22;57229;51.432;-2.598;2022-09-01T01:14:26;22.50;76.60
56256;DHT22;57229;51.432;-2.598;2022-09-01T01:16:53;22.50;76.70
56256;DHT22;57229;51.432;-2.598;2022-09-01T01:19:31;22.50;76.70
56256;DHT22;57229;51.432;-2.598;2022-09-01T01:25:26;22.50;76.80
56256;DHT22;57229;51.432;-2.598;2022-09-01T01:28:03;22.50;76.80
56256;DHT22;57229;51.432;-2.598;2022-09-01T01:30:28;22.50;76.80
56256;DHT22;57229;51.432;-2.598;2022-09-01T01:32:56;22.50;76.80
56256;DHT22;57229;51.432;-2.598;2022-09-01T01:35:22;22.50;76.80
56256;DHT22;57229;51.432;-2.598;2022-09-01T01:37:49;22.40;76.80
56256;DHT22;57229;51.432;-2.598;2022-09-01T01:40:18;22.40;76.80
56256;DHT22;57229;51.432;-2.598;2022-09-01T01:42:46;22.40;76.90
56256;DHT22;57229;51.432;-2.598;2022-09-01T01:45:15;22.40;76.90
56256;DHT22;57229;51.432;-2.598;2022-09-01T01:47:45;22.40;76.90
56256;DHT22;57229;51.432;-2.598;2022-09-01T01:50:15;22.40;76.90
56256;DHT22;57229;51.432;-2.598;2022-09-01T01:52:41;22.40;76.90
56256;DHT22;57229;51.432;-2.598;2022-09-01T01:55:08;22.40;76.90
56256;DHT22;57229;51.432;-2.598;2022-09-01T01:57:38;22.40;76.90
56256;DHT22;57229;51.432;-2.598;2022-09-01T02:00:05;22.40;77.00
56256;DHT22;57229;51.432;-2.598;2022-09-01T02:02:31;22.40;77.00
56256;DHT22;57229;51.432;-2.598;2022-09-01T02:04:56;22.40;77.00
56256;DHT22;57229;51.432;-2.598;2022-09-01T02:07:23;22.40;77.00
56256;DHT22;57229;51.432;-2.598;2022-09-01T02:09:49;22.40;77.00
56256;DHT22;57229;51.432;-2.598;2022-09-01T02:12:15;22.40;77.00
56256;DHT22;57229;51.432;-2.598;2022-09-01T02:14:44;22.40;77.00
56256;DHT22;57229;51.432;-2.598;2022-09-01T02:17:09;22.40;77.10
56256;DHT22;57229;51.432;-2.598;2022-09-01T02:19:35;22.40;77.10
56256;DHT22;57229;51.432;-2.598;2022-09-01T02:22:04;22.30;77.00
56256;DHT22;57229;51.432;-2.598;2022-09-01T02:24:30;22.30;77.00
56256;DHT22;57229;51.432;-2.598;2022-09-01T02:26:56;22.30;77.10
56256;DHT22;57229;51.432;-2.598;2022-09-01T02:29:23;22.30;77.10
56256;DHT22;57229;51.432;-2.598;2022-09-01T02:31:53;22.30;77.20
56256;DHT22;57229;51.432;-2.598;2022-09-01T02:34:19;22.30;77.20
56256;DHT22;57229;51.432;-2.598;2022-09-01T02:36:48;22.30;77.20
56256;DHT22;57229;51.432;-2.598;2022-09-01T02:39:15;22.30;77.20
56256;DHT22;57229;51.432;-2.598;2022-09-01T02:41:41;22.30;77.20
56256;DHT22;57229;51.432;-2.598;2022-09-01T02:44:07;22.30;77.30
56256;DHT22;57229;51.432;-2.598;2022-09-01T02:46:40;22.30;77.30
56256;DHT22;57229;51.432;-2.598;2022-09-01T02:49:19;22.30;77.40
56256;DHT22;57229;51.432;-2.598;2022-09-01T02:51:54;22.30;77.40
56256;DHT22;57229;51.432;-2.598;2022-09-01T02:54:27;22.30;77.40
56256;DHT22;57229;51.432;-2.598;2022-09-01T02:56:53;22.30;77.50
56256;DHT22;57229;51.432;-2.598;2022-09-01T02:59:21;22.20;77.40
56256;DHT22;57229;51.432;-2.598;2022-09-01T03:01:49;22.20;77.40
56256;DHT22;57229;51.432;-2.598;2022-09-01T03:04:16;22.20;77.40
56256;DHT22;57229;51.432;-2.598;2022-09-01T03:06:42;22.20;77.40
56256;DHT22;57229;51.432;-2.598;2022-09-01T03:09:11;22.20;77.40
56256;DHT22;57229;51.432;-2.598;2022-09-01T03:11:40;22.20;77.50
56256;DHT22;57229;51.432;-2.598;2022-09-01T03:14:07;22.20;77.50
56256;DHT22;57229;51.432;-2.598;2022-09-01T03:16:34;22.20;77.50
56256;DHT22;57229;51.432;-2.598;2022-09-01T03:19:00;22.20;77.50
56256;DHT22;57229;51.432;-2.598;2022-09-01T03:21:28;22.20;77.60
56256;DHT22;57229;51.432;-2.598;2022-09-01T03:23:56;22.20;77.60
56256;DHT22;57229;51.432;-2.598;2022-09-01T03:26:23;22.20;77.60
56256;DHT22;57229;51.432;-2.598;2022-09-01T03:28:50;22.20;77.60
56256;DHT22;57229;51.432;-2.598;2022-09-01T03:31:18;22.20;77.60
56256;DHT22;57229;51.432;-2.598;2022-09-01T03:33:44;22.20;77.70
56256;DHT22;57229;51.432;-2.598;2022-09-01T03:36:10;22.20;77.70
56256;DHT22;57229;51.432;-2.598;2022-09-01T03:38:47;22.10;77.60
56256;DHT22;57229;51.432;-2.598;2022-09-01T03:41:14;22.20;77.70
56256;DHT22;57229;51.432;-2.598;2022-09-01T03:43:43;22.10;77.60
56256;DHT22;57229;51.432;-2.598;2022-09-01T03:46:09;22.10;77.70
56256;DHT22;57229;51.432;-2.598;2022-09-01T03:48:36;22.10;77.70
56256;DHT22;57229;51.432;-2.598;2022-09-01T03:51:03;22.10;77.70
56256;DHT22;57229;51.432;-2.598;2022-09-01T03:53:32;22.10;77.70
56256;DHT22;57229;51.432;-2.598;2022-09-01T03:56:00;22.10;77.70
56256;DHT22;57229;51.432;-2.598;2022-09-01T03:58:29;22.10;77.80
56256;DHT22;57229;51.432;-2.598;2022-09-01T04:00:56;22.10;78.60
56256;DHT22;57229;51.432;-2.598;2022-09-01T04:03:25;22.10;77.80
56256;DHT22;57229;51.432;-2.598;2022-09-01T04:05:51;22.10;77.80
56256;DHT22;57229;51.432;-2.598;2022-09-01T04:08:20;22.10;77.90
56256;DHT22;57229;51.432;-2.598;2022-09-01T04:10:51;22.10;77.90
56256;DHT22;57229;51.432;-2.598;2022-09-01T04:13:22;22.10;77.90
56256;DHT22;57229;51.432;-2.598;2022-09-01T04:15:48;22.10;78.00
56256;DHT22;57229;51.432;-2.598;2022-09-01T04:18:16;22.10;78.10
56256;DHT22;57229;51.432;-2.598;2022-09-01T04:20:50;22.10;78.00
56256;DHT22;57229;51.432;-2.598;2022-09-01T04:23:28;22.10;78.10
56256;DHT22;57229;51.432;-2.598;2022-09-01T04:26:16;22.10;78.10
56256;DHT22;57229;51.432;-2.598;2022-09-01T04:28:47;22.10;78.10
56256;DHT22;57229;51.432;-2.598;2022-09-01T04:31:18;22.10;78.10
56256;DHT22;57229;51.432;-2.598;2022-09-01T04:33:45;22.10;78.20
56256;DHT22;57229;51.432;-2.598;2022-09-01T04:36:24;22.00;78.10
56256;DHT22;57229;51.432;-2.598;2022-09-01T04:38:53;22.00;78.10
56256;DHT22;57229;51.432;-2.598;2022-09-01T04:41:22;22.00;78.20
56256;DHT22;57229;51.432;-2.598;2022-09-01T04:43:51;22.00;78.10
56256;DHT22;57229;51.432;-2.598;2022-09-01T04:46:21;22.00;78.20
56256;DHT22;57229;51.432;-2.598;2022-09-01T04:48:47;22.00;78.20
56256;DHT22;57229;51.432;-2.598;2022-09-01T04:51:13;22.00;78.20
56256;DHT22;57229;51.432;-2.598;2022-09-01T04:53:41;22.00;78.20
56256;DHT22;57229;51.432;-2.598;2022-09-01T04:56:32;22.00;78.30
56256;DHT22;57229;51.432;-2.598;2022-09-01T04:59:00;22.00;78.30
56256;DHT22;57229;51.432;-2.598;2022-09-01T05:01:28;22.00;78.30
56256;DHT22;57229;51.432;-2.598;2022-09-01T05:03:54;22.00;78.30
56256;DHT22;57229;51.432;-2.598;2022-09-01T05:06:27;22.00;78.30
56256;DHT22;57229;51.432;-2.598;2022-09-01T05:08:54;22.00;78.30
56256;DHT22;57229;51.432;-2.598;2022-09-01T05:11:24;22.00;78.40
56256;DHT22;57229;51.432;-2.598;2022-09-01T05:13:50;22.00;78.40
56256;DHT22;57229;51.432;-2.598;2022-09-01T05:16:19;22.00;78.40
56256;DHT22;57229;51.432;-2.598;2022-09-01T05:18:47;22.00;78.40
56256;DHT22;57229;51.432;-2.598;2022-09-01T05:21:16;22.00;78.40
56256;DHT22;57229;51.432;-2.598;2022-09-01T05:23:45;21.90;78.40
56256;DHT22;57229;51.432;-2.598;2022-09-01T05:26:36;21.90;78.40
56256;DHT22;57229;51.432;-2.598;2022-09-01T05:29:06;21.90;78.50
56256;DHT22;57229;51.432;-2.598;2022-09-01T05:31:38;21.90;78.50
56256;DHT22;57229;51.432;-2.598;2022-09-01T05:34:05;21.90;78.50
56256;DHT22;57229;51.432;-2.598;2022-09-01T05:36:35;21.90;78.50
56256;DHT22;57229;51.432;-2.598;2022-09-01T05:39:03;21.90;78.60
56256;DHT22;57229;51.432;-2.598;2022-09-01T05:41:29;21.90;78.60
56256;DHT22;57229;51.432;-2.598;2022-09-01T05:43:55;22.00;78.60
56256;DHT22;57229;51.432;-2.598;2022-09-01T05:46:24;21.90;78.60
56256;DHT22;57229;51.432;-2.598;2022-09-01T05:48:52;21.90;78.60
56256;DHT22;57229;51.432;-2.598;2022-09-01T05:51:21;21.90;78.70
56256;DHT22;57229;51.432;-2.598;2022-09-01T05:53:50;21.90;78.70
56256;DHT22;57229;51.432;-2.598;2022-09-01T05:56:17;21.90;78.70
56256;DHT22;57229;51.432;-2.598;2022-09-01T05:58:44;21.90;78.90
56256;DHT22;57229;51.432;-2.598;2022-09-01T06:01:31;21.90;78.80
56256;DHT22;57229;51.432;-2.598;2022-09-01T06:03:59;21.90;78.90
56256;DHT22;57229;51.432;-2.598;2022-09-01T06:06:33;21.80;78.80
56256;DHT22;57229;51.432;-2.598;2022-09-01T06:09:04;21.90;78.90
56256;DHT22;57229;51.432;-2.598;2022-09-01T06:11:29;21.80;78.90
56256;DHT22;57229;51.432;-2.598;2022-09-01T06:13:59;21.80;79.00
56256;DHT22;57229;51.432;-2.598;2022-09-01T06:16:26;21.80;78.90
56256;DHT22;57229;51.432;-2.598;2022-09-01T06:18:53;21.80;79.00
56256;DHT22;57229;51.432;-2.598;2022-09-01T06:21:20;21.80;79.10
56256;DHT22;57229;51.432;-2.598;2022-09-01T06:23:49;21.80;79.00
56256;DHT22;57229;51.432;-2.598;2022-09-01T06:26:22;21.80;79.10
56256;DHT22;57229;51.432;-2.598;2022-09-01T06:28:51;21.80;79.10
56256;DHT22;57229;51.432;-2.598;2022-09-01T06:31:23;21.80;79.20
56256;DHT22;57229;51.432;-2.598;2022-09-01T06:33:53;21.80;79.10
56256;DHT22;57229;51.432;-2.598;2022-09-01T06:36:22;21.80;79.20
56256;DHT22;57229;51.432;-2.598;2022-09-01T06:38:50;21.80;79.20
56256;DHT22;57229;51.432;-2.598;2022-09-01T06:41:16;21.80;79.20
56256;DHT22;57229;51.432;-2.598;2022-09-01T06:43:47;21.80;79.20
56256;DHT22;57229;51.432;-2.598;2022-09-01T06:46:17;21.80;79.20
56256;DHT22;57229;51.432;-2.598;2022-09-01T06:48:44;21.80;79.20
56256;DHT22;57229;51.432;-2.598;2022-09-01T06:51:15;21.80;79.20
56256;DHT22;57229;51.432;-2.598;2022-09-01T06:53:43;21.80;79.30
56256;DHT22;57229;51.432;-2.598;2022-09-01T06:56:10;21.80;79.40
56256;DHT22;57229;51.432;-2.598;2022-09-01T06:58:41;21.80;79.40
56256;DHT22;57229;51.432;-2.598;2022-09-01T07:01:15;21.80;79.40
56256;DHT22;57229;51.432;-2.598;2022-09-01T07:03:46;21.80;79.50
56256;DHT22;57229;51.432;-2.598;2022-09-01T07:06:13;21.80;79.50
56256;DHT22;57229;51.432;-2.598;2022-09-01T07:08:40;21.80;79.50
56256;DHT22;57229;51.432;-2.598;2022-09-01T07:11:19;21.80;79.60
56256;DHT22;57229;51.432;-2.598;2022-09-01T07:13:54;21.80;79.70
56256;DHT22;57229;51.432;-2.598;2022-09-01T07:16:22;21.80;79.70
56256;DHT22;57229;51.432;-2.598;2022-09-01T07:18:53;21.80;79.70
56256;DHT22;57229;51.432;-2.598;2022-09-01T07:21:22;21.80;79.70
56256;DHT22;57229;51.432;-2.598;2022-09-01T07:23:48;21.80;79.70
56256;DHT22;57229;51.432;-2.598;2022-09-01T07:26:14;21.80;79.70
56256;DHT22;57229;51.432;-2.598;2022-09-01T07:28:48;21.80;79.70
56256;DHT22;57229;51.432;-2.598;2022-09-01T07:31:29;21.80;79.70
56256;DHT22;57229;51.432;-2.598;2022-09-01T07:33:58;21.80;79.80
56256;DHT22;57229;51.432;-2.598;2022-09-01T07:36:25;21.80;79.80
56256;DHT22;57229;51.432;-2.598;2022-09-01T07:38:51;21.80;79.80
56256;DHT22;57229;51.432;-2.598;2022-09-01T07:41:23;21.80;79.90
56256;DHT22;57229;51.432;-2.598;2022-09-01T07:43:50;21.80;79.90
56256;DHT22;57229;51.432;-2.598;2022-09-01T07:46:22;21.80;80.00
56256;DHT22;57229;51.432;-2.598;2022-09-01T07:48:48;21.80;80.10
56256;DHT22;57229;51.432;-2.598;2022-09-01T07:51:17;21.80;80.40
56256;DHT22;57229;51.432;-2.598;2022-09-01T07:53:45;21.80;80.50
56256;DHT22;57229;51.432;-2.598;2022-09-01T07:56:14;21.80;80.60
56256;DHT22;57229;51.432;-2.598;2022-09-01T07:58:40;21.80;80.80
56256;DHT22;57229;51.432;-2.598;2022-09-01T08:01:13;21.80;81.00
56256;DHT22;57229;51.432;-2.598;2022-09-01T08:03:47;21.80;81.00
56256;DHT22;57229;51.432;-2.598;2022-09-01T08:06:16;21.80;80.90
56256;DHT22;57229;51.432;-2.598;2022-09-01T08:08:49;21.80;80.90
56256;DHT22;57229;51.432;-2.598;2022-09-01T08:11:27;21.80;81.10
56256;DHT22;57229;51.432;-2.598;2022-09-01T08:13:54;21.80;81.30
56256;DHT22;57229;51.432;-2.598;2022-09-01T08:16:23;21.80;81.40
56256;DHT22;57229;51.432;-2.598;2022-09-01T08:18:49;21.80;81.50
56256;DHT22;57229;51.432;-2.598;2022-09-01T08:21:16;21.80;81.50
56256;DHT22;57229;51.432;-2.598;2022-09-01T08:23:42;21.80;81.60
56256;DHT22;57229;51.432;-2.598;2022-09-01T08:26:10;21.80;81.60
56256;DHT22;57229;51.432;-2.598;2022-09-01T08:28:36;21.80;81.50
56256;DHT22;57229;51.432;-2.598;2022-09-01T08:31:10;21.80;81.60
56256;DHT22;57229;51.432;-2.598;2022-09-01T08:33:36;21.80;81.50
56256;DHT22;57229;51.432;-2.598;2022-09-01T08:36:03;21.80;81.50
56256;DHT22;57229;51.432;-2.598;2022-09-01T08:38:31;21.80;81.60
56256;DHT22;57229;51.432;-2.598;2022-09-01T08:40:57;21.80;81.60
56256;DHT22;57229;51.432;-2.598;2022-09-01T08:45:57;21.80;81.50
56256;DHT22;57229;51.432;-2.598;2022-09-01T08:48:57;21.90;81.50
56256;DHT22;57229;51.432;-2.598;2022-09-01T08:51:36;21.80;81.40
56256;DHT22;57229;51.432;-2.598;2022-09-01T08:57:00;21.90;81.40
56256;DHT22;57229;51.432;-2.598;2022-09-01T08:59:26;21.90;81.40
56256;DHT22;57229;51.432;-2.598;2022-09-01T09:01:59;21.90;81.40
56256;DHT22;57229;51.432;-2.598;2022-09-01T09:07:21;21.90;81.30
56256;DHT22;57229;51.432;-2.598;2022-09-01T09:10:14;22.00;81.40
56256;DHT22;57229;51.432;-2.598;2022-09-01T09:15:44;22.00;81.20
56256;DHT22;57229;51.432;-2.598;2022-09-01T09:21:52;22.00;81.10
56256;DHT22;57229;51.432;-2.598;2022-09-01T09:24:28;22.10;81.30
56256;DHT22;57229;51.432;-2.598;2022-09-01T09:30:02;22.10;81.20
56256;DHT22;57229;51.432;-2.598;2022-09-01T09:32:53;22.10;81.30
56256;DHT22;57229;51.432;-2.598;2022-09-01T09:35:36;22.10;81.30
56256;DHT22;57229;51.432;-2.598;2022-09-01T09:41:05;22.10;81.20
56256;DHT22;57229;51.432;-2.598;2022-09-01T09:43:35;22.10;81.30
56256;DHT22;57229;51.432;-2.598;2022-09-01T09:49:05;22.10;81.30
56256;DHT22;57229;51.432;-2.598;2022-09-01T09:51:31;22.10;81.90
56256;DHT22;57229;51.432;-2.598;2022-09-01T09:56:40;22.20;80.80
56256;DHT22;57229;51.432;-2.598;2022-09-01T09:59:20;22.30;80.70
56256;DHT22;57229;51.432;-2.598;2022-09-01T10:01:46;22.30;80.50
56256;DHT22;57229;51.432;-2.598;2022-09-01T10:04:32;22.30;80.50
56256;DHT22;57229;51.432;-2.598;2022-09-01T10:06:58;22.30;80.70
56256;DHT22;57229;51.432;-2.598;2022-09-01T10:11:58;22.30;80.60
56256;DHT22;57229;51.432;-2.598;2022-09-01T10:14:29;22.30;80.60
56256;DHT22;57229;51.432;-2.598;2022-09-01T10:17:10;22.30;80.50
56256;DHT22;57229;51.432;-2.598;2022-09-01T10:19:42;22.40;80.60
56256;DHT22;57229;51.432;-2.598;2022-09-01T10:22:10;22.40;80.40
56256;DHT22;57229;51.432;-2.598;2022-09-01T10:24:37;22.60;79.80
56256;DHT22;57229;51.432;-2.598;2022-09-01T10:27:10;22.90;78.80
56256;DHT22;57229;51.432;-2.598;2022-09-01T10:29:41;23.10;78.40
56256;DHT22;57229;51.432;-2.598;2022-09-01T10:32:15;23.20;78.20
56256;DHT22;57229;51.432;-2.598;2022-09-01T10:34:43;23.40;77.60
56256;DHT22;57229;51.432;-2.598;2022-09-01T10:37:10;23.50;76.90
56256;DHT22;57229;51.432;-2.598;2022-09-01T10:42:43;23.50;77.10
56256;DHT22;57229;51.432;-2.598;2022-09-01T10:45:33;23.40;77.00
56256;DHT22;57229;51.432;-2.598;2022-09-01T10:53:39;23.50;76.90
56256;DHT22;57229;51.432;-2.598;2022-09-01T11:04:22;23.60;76.10
56256;DHT22;57229;51.432;-2.598;2022-09-01T11:07:02;23.50;76.40
56256;DHT22;57229;51.432;-2.598;2022-09-01T11:09:42;23.40;76.70
56256;DHT22;57229;51.432;-2.598;2022-09-01T11:15:05;23.30;77.50
56256;DHT22;57229;51.432;-2.598;2022-09-01T11:17:53;23.20;77.60
56256;DHT22;57229;51.432;-2.598;2022-09-01T11:20:27;23.10;77.70
56256;DHT22;57229;51.432;-2.598;2022-09-01T11:41:33;23.10;78.20
56256;DHT22;57229;51.432;-2.598;2022-09-01T11:44:07;23.10;78.40
56256;DHT22;57229;51.432;-2.598;2022-09-01T11:46:36;23.20;78.60
56256;DHT22;57229;51.432;-2.598;2022-09-01T11:51:49;23.30;78.10
56256;DHT22;57229;51.432;-2.598;2022-09-01T11:54:15;23.30;78.00
56256;DHT22;57229;51.432;-2.598;2022-09-01T11:56:41;23.30;78.00
56256;DHT22;57229;51.432;-2.598;2022-09-01T11:59:06;23.20;78.20
56256;DHT22;57229;51.432;-2.598;2022-09-01T12:01:35;23.20;78.20
56256;DHT22;57229;51.432;-2.598;2022-09-01T12:04:23;23.20;78.20
56256;DHT22;57229;51.432;-2.598;2022-09-01T12:06:56;23.10;78.10
56256;DHT22;57229;51.432;-2.598;2022-09-01T12:09:32;23.10;78.90
56256;DHT22;57229;51.432;-2.598;2022-09-01T12:11:58;23.10;79.10
56256;DHT22;57229;51.432;-2.598;2022-09-01T12:14:25;23.00;78.90
56256;DHT22;57229;51.432;-2.598;2022-09-01T12:17:00;23.00;79.40
56256;DHT22;57229;51.432;-2.598;2022-09-01T12:19:30;22.90;78.40
56256;DHT22;57229;51.432;-2.598;2022-09-01T12:22:02;22.90;78.40
56256;DHT22;57229;51.432;-2.598;2022-09-01T12:24:34;22.80;78.10
56256;DHT22;57229;51.432;-2.598;2022-09-01T12:27:00;22.90;78.00
56256;DHT22;57229;51.432;-2.598;2022-09-01T12:29:27;22.80;77.90
56256;DHT22;57229;51.432;-2.598;2022-09-01T12:31:54;22.80;77.80
56256;DHT22;57229;51.432;-2.598;2022-09-01T12:37:27;22.70;77.80
56256;DHT22;57229;51.432;-2.598;2022-09-01T12:39:55;22.70;78.00
56256;DHT22;57229;51.432;-2.598;2022-09-01T12:42:23;22.70;77.80
56256;DHT22;57229;51.432;-2.598;2022-09-01T12:44:52;22.70;77.90
56256;DHT22;57229;51.432;-2.598;2022-09-01T12:52:32;22.70;77.90
56256;DHT22;57229;51.432;-2.598;2022-09-01T12:57:45;22.70;78.20
56256;DHT22;57229;51.432;-2.598;2022-09-01T13:00:20;22.70;78.30
56256;DHT22;57229;51.432;-2.598;2022-09-01T13:02:51;22.70;78.30
56256;DHT22;57229;51.432;-2.598;2022-09-01T13:05:41;22.70;79.10
56256;DHT22;57229;51.432;-2.598;2022-09-01T13:10:44;22.70;78.40
56256;DHT22;57229;51.432;-2.598;2022-09-01T13:13:12;22.70;78.40
56256;DHT22;57229;51.432;-2.598;2022-09-01T13:15:43;22.60;78.30
56256;DHT22;57229;51.432;-2.598;2022-09-01T13:18:12;22.60;78.30
56256;DHT22;57229;51.432;-2.598;2022-09-01T13:20:39;22.60;78.30
56256;DHT22;57229;51.432;-2.598;2022-09-01T13:23:07;22.60;78.30
56256;DHT22;57229;51.432;-2.598;2022-09-01T13:25:33;22.60;78.30
56256;DHT22;57229;51.432;-2.598;2022-09-01T13:27:58;22.70;79.10
56256;DHT22;57229;51.432;-2.598;2022-09-01T13:30:27;22.70;78.30
56256;DHT22;57229;51.432;-2.598;2022-09-01T13:32:55;22.60;78.30
56256;DHT22;57229;51.432;-2.598;2022-09-01T13:35:21;22.70;78.30
56256;DHT22;57229;51.432;-2.598;2022-09-01T13:37:48;22.70;78.20
56256;DHT22;57229;51.432;-2.598;2022-09-01T13:40:16;22.70;78.20
56256;DHT22;57229;51.432;-2.598;2022-09-01T13:42:46;22.70;78.10
56256;DHT22;57229;51.432;-2.598;2022-09-01T13:45:13;22.70;78.10
56256;DHT22;57229;51.432;-2.598;2022-09-01T13:47:43;22.70;78.00
56256;DHT22;57229;51.432;-2.598;2022-09-01T13:50:10;22.70;77.90
56256;DHT22;57229;51.432;-2.598;2022-09-01T13:52:39;22.80;77.90
56256;DHT22;57229;51.432;-2.598;2022-09-01T13:55:08;22.70;77.80
56256;DHT22;57229;51.432;-2.598;2022-09-01T13:57:34;22.70;77.80
56256;DHT22;57229;51.432;-2.598;2022-09-01T14:00:00;22.70;77.80
56256;DHT22;57229;51.432;-2.598;2022-09-01T14:02:26;22.70;77.80
56256;DHT22;57229;51.432;-2.598;2022-09-01T14:04:51;22.70;77.90
56256;DHT22;57229;51.432;-2.598;2022-09-01T14:07:17;22.70;77.90
56256;DHT22;57229;51.432;-2.598;2022-09-01T14:09:44;22.70;77.90
56256;DHT22;57229;51.432;-2.598;2022-09-01T14:12:10;22.70;77.90
56256;DHT22;57229;51.432;-2.598;2022-09-01T14:14:36;22.70;77.90
56256;DHT22;57229;51.432;-2.598;2022-09-01T14:17:02;22.70;77.90
56256;DHT22;57229;51.432;-2.598;2022-09-01T14:19:28;22.70;77.90
56256;DHT22;57229;51.432;-2.598;2022-09-01T14:21:55;22.70;77.80
56256;DHT22;57229;51.432;-2.598;2022-09-01T14:24:21;22.70;77.90
56256;DHT22;57229;51.432;-2.598;2022-09-01T14:26:47;22.70;77.80
56256;DHT22;57229;51.432;-2.598;2022-09-01T14:29:15;22.70;77.80
56256;DHT22;57229;51.432;-2.598;2022-09-01T14:31:41;22.70;77.80
56256;DHT22;57229;51.432;-2.598;2022-09-01T14:34:09;22.70;77.80
56256;DHT22;57229;51.432;-2.598;2022-09-01T14:36:36;22.70;77.80
56256;DHT22;57229;51.432;-2.598;2022-09-01T14:39:03;22.80;77.80
56256;DHT22;57229;51.432;-2.598;2022-09-01T14:41:30;22.70;77.70
56256;DHT22;57229;51.432;-2.598;2022-09-01T14:43:56;22.80;77.80
56256;DHT22;57229;51.432;-2.598;2022-09-01T14:46:27;22.70;77.70
56256;DHT22;57229;51.432;-2.598;2022-09-01T14:48:54;22.80;77.70
56256;DHT22;57229;51.432;-2.598;2022-09-01T14:51:23;22.80;77.70
56256;DHT22;57229;51.432;-2.598;2022-09-01T14:53:50;22.80;77.60
56256;DHT22;57229;51.432;-2.598;2022-09-01T14:56:16;22.90;77.60
56256;DHT22;57229;51.432;-2.598;2022-09-01T14:58:44;22.90;77.60
56256;DHT22;57229;51.432;-2.598;2022-09-01T15:01:13;22.90;77.50
56256;DHT22;57229;51.432;-2.598;2022-09-01T15:03:40;22.90;77.50
56256;DHT22;57229;51.432;-2.598;2022-09-01T15:06:06;22.90;77.50
56256;DHT22;57229;51.432;-2.598;2022-09-01T15:08:32;23.00;77.50
56256;DHT22;57229;51.432;-2.598;2022-09-01T15:10:57;23.00;77.40
56256;DHT22;57229;51.432;-2.598;2022-09-01T15:13:26;23.00;77.40
56256;DHT22;57229;51.432;-2.598;2022-09-01T15:15:51;23.10;77.30
56256;DHT22;57229;51.432;-2.598;2022-09-01T15:18:17;23.10;77.20
56256;DHT22;57229;51.432;-2.598;2022-09-01T15:20:43;23.10;77.10
56256;DHT22;57229;51.432;-2.598;2022-09-01T15:23:12;23.20;77.10
56256;DHT22;57229;51.432;-2.598;2022-09-01T15:25:38;23.20;77.00
56256;DHT22;57229;51.432;-2.598;2022-09-01T15:28:04;23.20;76.90
56256;DHT22;57229;51.432;-2.598;2022-09-01T15:30:30;23.30;76.90
56256;DHT22;57229;51.432;-2.598;2022-09-01T15:32:56;23.30;76.90
56256;DHT22;57229;51.432;-2.598;2022-09-01T15:35:22;23.30;76.80
56256;DHT22;57229;51.432;-2.598;2022-09-01T15:37:49;23.30;76.90
56256;DHT22;57229;51.432;-2.598;2022-09-01T15:40:16;23.30;76.90
56256;DHT22;57229;51.432;-2.598;2022-09-01T15:42:42;23.20;76.90
56256;DHT22;57229;51.432;-2.598;2022-09-01T15:45:14;23.20;76.90
56256;DHT22;57229;51.432;-2.598;2022-09-01T15:47:40;23.20;76.90
56256;DHT22;57229;51.432;-2.598;2022-09-01T15:50:09;23.20;76.90
56256;DHT22;57229;51.432;-2.598;2022-09-01T15:52:51;23.20;76.90
56256;DHT22;57229;51.432;-2.598;2022-09-01T15:55:19;23.20;76.90
56256;DHT22;57229;51.432;-2.598;2022-09-01T15:57:46;23.10;76.80
56256;DHT22;57229;51.432;-2.598;2022-09-01T16:00:12;23.10;76.80
56256;DHT22;57229;51.432;-2.598;2022-09-01T16:02:38;23.10;76.90
56256;DHT22;57229;51.432;-2.598;2022-09-01T16:05:04;23.10;76.90
56256;DHT22;57229;51.432;-2.598;2022-09-01T16:07:30;23.10;76.90
56256;DHT22;57229;51.432;-2.598;2022-09-01T16:09:57;23.10;77.00
56256;DHT22;57229;51.432;-2.598;2022-09-01T16:12:32;23.10;77.10
56256;DHT22;57229;51.432;-2.598;2022-09-01T16:15:25;23.00;77.10
56256;DHT22;57229;51.432;-2.598;2022-09-01T16:23:43;23.00;77.30
56256;DHT22;57229;51.432;-2.598;2022-09-01T16:26:09;23.00;77.20
56256;DHT22;57229;51.432;-2.598;2022-09-01T16:28:40;23.00;77.30
56256;DHT22;57229;51.432;-2.598;2022-09-01T16:31:18;23.00;77.50
56256;DHT22;57229;51.432;-2.598;2022-09-01T16:33:48;23.00;77.80
56256;DHT22;57229;51.432;-2.598;2022-09-01T16:36:35;23.00;77.60
56256;DHT22;57229;51.432;-2.598;2022-09-01T16:39:17;23.00;77.50
56256;DHT22;57229;51.432;-2.598;2022-09-01T16:44:56;22.90;77.70
56256;DHT22;57229;51.432;-2.598;2022-09-01T16:50:47;22.90;77.60
56256;DHT22;57229;51.432;-2.598;2022-09-01T16:56:24;22.90;77.80
56256;DHT22;57229;51.432;-2.598;2022-09-01T16:59:28;22.90;78.20
56256;DHT22;57229;51.432;-2.598;2022-09-01T17:02:17;22.90;78.20
56256;DHT22;57229;51.432;-2.598;2022-09-01T17:04:49;22.90;78.20
56256;DHT22;57229;51.432;-2.598;2022-09-01T17:10:42;22.90;78.60
56256;DHT22;57229;51.432;-2.598;2022-09-01T17:15:54;22.90;79.10
56256;DHT22;57229;51.432;-2.598;2022-09-01T17:18:32;22.80;79.10